createdAt,value
2023-02-27T00:00:15.193Z,97282.16
2023-02-27T00:03:05.838Z,97285.66
2023-02-27T00:05:57.975Z,97290.44
2023-02-27T00:08:47.759Z,97296.56
2023-02-27T00:11:39.240Z,97290.34
2023-02-27T00:14:30.386Z,97289.22
2023-02-27T00:17:20.170Z,97296.84
2023-02-27T00:20:13.094Z,97297.09
2023-02-27T00:23:02.615Z,97297.66
2023-02-27T00:25:52.879Z,97297.81
2023-02-27T00:28:44.210Z,97303.31
2023-02-27T00:31:36.022Z,97291.16
2023-02-27T00:34:26.230Z,97304.03
2023-02-27T00:37:19.409Z,97301.69
2023-02-27T00:40:11.630Z,97309.00
2023-02-27T00:43:01.900Z,97302.13
2023-02-27T00:45:53.688Z,97305.34
2023-02-27T00:48:45.502Z,97304.91
2023-02-27T00:51:35.364Z,97309.00
2023-02-27T00:54:25.962Z,97313.69
2023-02-27T00:57:15.877Z,97302.97
2023-02-27T01:00:07.263Z,97300.28
2023-02-27T01:02:58.280Z,97302.13
2023-02-27T01:05:47.749Z,97303.63
2023-02-27T01:08:37.619Z,97301.59
2023-02-27T01:11:28.107Z,97299.94
2023-02-27T01:14:22.224Z,97297.72
2023-02-27T01:17:12.318Z,97293.84
2023-02-27T01:20:03.943Z,97297.72
2023-02-27T01:22:53.715Z,97297.09
2023-02-27T01:25:43.894Z,97288.78
2023-02-27T01:28:33.380Z,97289.22
2023-02-27T01:31:23.097Z,97307.84
2023-02-27T01:34:12.950Z,97298.66
2023-02-27T01:37:07.821Z,97309.47
2023-02-27T01:39:57.734Z,97302.72
2023-02-27T01:42:47.926Z,97296.69
2023-02-27T01:45:39.600Z,97307.41
2023-02-27T01:48:31.497Z,97314.28
2023-02-27T01:51:22.881Z,97304.28
2023-02-27T01:54:18.591Z,97311.97
2023-02-27T01:57:09.328Z,97307.88
2023-02-27T01:59:59.086Z,97315.00
2023-02-27T02:02:52.134Z,97313.38
2023-02-27T02:05:42.253Z,97317.03
2023-02-27T02:08:34.795Z,97314.19
2023-02-27T02:11:27.473Z,97310.28
2023-02-27T02:14:17.458Z,97313.06
2023-02-27T02:17:16.432Z,97318.69
2023-02-27T02:20:37.587Z,97319.16
2023-02-27T02:24:05.634Z,97318.69
2023-02-27T02:27:19.268Z,97315.41
2023-02-27T02:30:44.210Z,97305.97
2023-02-27T02:34:23.021Z,97310.94
2023-02-27T02:37:43.935Z,97312.25
2023-02-27T02:40:39.317Z,97310.69
2023-02-27T02:43:33.401Z,97307.03
2023-02-27T02:46:30.568Z,97309.00
2023-02-27T02:49:25.261Z,97309.00
2023-02-27T02:52:17.814Z,97306.22
2023-02-27T02:55:10.355Z,97309.28
2023-02-27T02:58:05.031Z,97324.63
2023-02-27T03:00:58.423Z,97322.00
2023-02-27T03:03:51.792Z,97323.66
2023-02-27T03:06:45.424Z,97324.84
2023-02-27T03:09:39.028Z,97326.88
2023-02-27T03:12:30.765Z,97314.69
2023-02-27T03:15:24.836Z,97320.31
2023-02-27T03:18:20.975Z,97318.69
2023-02-27T03:21:13.410Z,97322.00
2023-02-27T03:24:07.467Z,97318.38
2023-02-27T03:27:03.224Z,97312.31
2023-02-27T03:29:58.581Z,97327.31
2023-02-27T03:32:57.108Z,97324.25
2023-02-27T03:35:50.912Z,97317.53
2023-02-27T03:38:45.878Z,97318.50
2023-02-27T03:41:38.119Z,97316.72
2023-02-27T03:44:52.568Z,97324.84
2023-02-27T03:47:42.611Z,97325.84
2023-02-27T03:50:34.207Z,97326.41
2023-02-27T03:53:28.921Z,97330.66
2023-02-27T03:56:22.449Z,97327.63
2023-02-27T03:59:12.765Z,97330.97
2023-02-27T04:02:07.658Z,97347.19
2023-02-27T04:05:00.873Z,97341.94
2023-02-27T04:08:25.280Z,97339.06
2023-02-27T04:11:26.590Z,97346.38
2023-02-27T04:14:42.414Z,97345.75
2023-02-27T04:17:33.062Z,97345.09
2023-02-27T04:20:39.244Z,97353.66
2023-02-27T04:23:36.277Z,97347.50
2023-02-27T04:26:30.892Z,97340.66
2023-02-27T04:29:23.836Z,97342.50
2023-02-27T04:32:16.968Z,97351.22
2023-02-27T07:40:35.269Z,97410.19
2023-02-27T07:43:26.305Z,97406.75
2023-02-27T07:46:16.469Z,97412.41
2023-02-27T07:49:08.499Z,97417.69
2023-02-27T07:51:58.067Z,97414.09
2023-02-27T07:54:47.446Z,97417.09
2023-02-27T07:57:38.216Z,97415.63
2023-02-27T08:00:27.493Z,97420.50
2023-02-27T08:03:17.319Z,97417.56
2023-02-27T08:06:07.680Z,97415.72
2023-02-27T08:08:57.568Z,97419.78
2023-02-27T08:11:48.902Z,97419.63
2023-02-27T08:14:40.124Z,97429.16
2023-02-27T08:17:33.052Z,97428.56
2023-02-27T08:20:24.601Z,97430.59
2023-02-27T08:23:14.560Z,97428.47
2023-02-27T08:26:04.568Z,97426.41
2023-02-27T08:29:00.391Z,97433.25
2023-02-27T08:31:51.741Z,97436.25
2023-02-27T08:34:41.596Z,97436.59
2023-02-27T08:37:37.404Z,97438.69
2023-02-27T08:40:27.414Z,97430.28
2023-02-27T08:43:18.004Z,97444.66
2023-02-27T08:46:08.441Z,97438.53
2023-02-27T08:48:59.812Z,97448.47
2023-02-27T08:51:49.781Z,97450.41
2023-02-27T08:54:39.992Z,97456.44
2023-02-27T08:57:29.968Z,97459.22
2023-02-27T09:00:21.296Z,97462.47
2023-02-27T09:03:11.670Z,97464.53
2023-02-27T09:06:03.416Z,97471.81
2023-02-27T09:08:53.086Z,97465.56
2023-02-27T09:11:42.772Z,97459.56
2023-02-27T09:14:32.450Z,97461.38
2023-02-27T09:17:22.648Z,97460.44
2023-02-27T09:20:13.886Z,97466.00
2023-02-27T09:23:05.601Z,97472.47
2023-02-27T09:25:55.385Z,97481.13
2023-02-27T09:28:45.458Z,97469.53
2023-02-27T09:31:35.654Z,97471.97
2023-02-27T09:34:26.253Z,97473.97
2023-02-27T09:37:16.651Z,97474.38
2023-02-27T09:40:09.326Z,97476.00
2023-02-27T09:43:01.540Z,97482.91
2023-02-27T09:45:54.749Z,97485.56
2023-02-27T09:48:47.452Z,97480.88
2023-02-27T09:51:37.131Z,97476.38
2023-02-27T09:54:33.251Z,97495.03
2023-02-27T09:57:33.191Z,97480.41
2023-02-27T10:00:37.913Z,97497.00
2023-02-27T10:03:40.337Z,97498.63
2023-02-27T10:06:33.638Z,97493.63
2023-02-27T10:09:31.212Z,97505.69
2023-02-27T10:12:50.074Z,97514.50
2023-02-27T10:15:41.094Z,97520.97
2023-02-27T10:18:32.630Z,97519.41
2023-02-27T10:21:24.582Z,97515.97
2023-02-27T10:24:22.648Z,97520.81
2023-02-27T10:27:17.986Z,97534.38
2023-02-27T10:30:29.282Z,97531.38
2023-02-27T10:33:28.057Z,97531.09
2023-02-27T10:36:32.435Z,97529.91
2023-02-27T10:39:24.784Z,97537.41
2023-02-27T10:42:15.070Z,97534.69
2023-02-27T10:45:15.068Z,97532.88
2023-02-27T10:48:06.918Z,97533.00
2023-02-27T10:51:24.764Z,97531.19
2023-02-27T10:54:32.259Z,97531.44
2023-02-27T10:57:27.746Z,97535.66
2023-02-27T11:00:28.470Z,97545.34
2023-02-27T11:03:23.753Z,97542.66
2023-02-27T11:06:15.862Z,97535.94
2023-02-27T11:09:22.452Z,97531.69
2023-02-27T11:12:14.673Z,97539.75
2023-02-27T11:15:23.501Z,97531.41
2023-02-27T11:18:27.482Z,97529.78
2023-02-27T11:21:23.219Z,97535.34
2023-02-27T11:24:21.008Z,97530.78
2023-02-27T11:27:22.467Z,97516.47
2023-02-27T11:30:25.143Z,97521.97
2023-02-27T11:33:21.634Z,97520.78
2023-02-27T11:36:13.027Z,97519.34
2023-02-27T11:39:05.855Z,97513.25
2023-02-27T11:41:57.284Z,97521.63
2023-02-27T11:44:53.376Z,97526.63
2023-02-27T11:47:44.388Z,97516.28
2023-02-27T11:50:43.669Z,97525.16
2023-02-27T11:54:04.620Z,97516.50
2023-02-27T11:56:56.241Z,97520.00
2023-02-27T11:59:50.136Z,97523.41
2023-02-27T12:02:47.339Z,97517.97
2023-02-27T12:05:41.704Z,97510.31
2023-02-27T12:08:35.865Z,97500.22
2023-02-27T12:11:30.037Z,97501.03
2023-02-27T12:14:24.879Z,97505.84
2023-02-27T12:17:22.157Z,97504.53
2023-02-27T12:20:27.555Z,97501.34
2023-02-27T12:23:21.174Z,97500.59
2023-02-27T12:26:15.510Z,97499.72
2023-02-27T12:29:13.199Z,97511.59
2023-02-27T12:32:05.384Z,97512.34
2023-02-27T12:34:56.367Z,97501.47
2023-02-27T12:37:49.287Z,97511.53
2023-02-27T12:40:48.586Z,97503.69
2023-02-27T12:43:43.694Z,97500.97
2023-02-27T12:46:43.411Z,97501.22
2023-02-27T12:49:40.588Z,97494.84
2023-02-27T12:52:37.425Z,97494.41
2023-02-27T12:55:28.498Z,97488.53
2023-02-27T12:58:30.600Z,97484.72
2023-02-27T13:01:32.631Z,97489.03
2023-02-27T13:04:27.319Z,97488.34
2023-02-27T13:07:24.612Z,97479.84
2023-02-27T13:10:19.306Z,97493.59
2023-02-27T13:13:16.980Z,97478.16
2023-02-27T13:16:09.038Z,97479.19
2023-02-27T13:19:02.489Z,97486.22
2023-02-27T13:21:57.267Z,97488.75
2023-02-27T13:24:49.519Z,97489.66
2023-02-27T13:27:40.642Z,97491.25
2023-02-27T13:30:34.607Z,97486.56
2023-02-27T13:33:51.782Z,97488.63
2023-02-27T13:36:43.895Z,97490.72
2023-02-27T13:39:56.395Z,97492.63
2023-02-27T13:42:55.277Z,97481.94
2023-02-27T13:45:57.076Z,97487.44
2023-02-27T13:48:52.424Z,97485.69
2023-02-27T13:51:51.016Z,97479.72
2023-02-27T13:54:59.914Z,97483.19
2023-02-27T13:57:53.861Z,97485.50
2023-02-27T14:00:42.949Z,97476.63
2023-02-27T14:03:32.607Z,97477.44
2023-02-27T14:06:22.492Z,97482.50
2023-02-27T14:09:15.328Z,97477.56
2023-02-27T14:12:09.423Z,97481.84
2023-02-27T14:14:59.012Z,97480.47
2023-02-27T14:17:52.373Z,97478.84
2023-02-27T14:20:52.064Z,97477.25
2023-02-27T14:23:41.236Z,97479.53
2023-02-27T14:26:30.613Z,97480.34
2023-02-27T14:29:24.800Z,97471.94
2023-02-27T14:32:20.990Z,97464.56
2023-02-27T14:35:13.949Z,97475.53
2023-02-27T14:38:09.851Z,97477.25
2023-02-27T14:41:19.729Z,97478.41
2023-02-27T14:44:20.459Z,97471.94
2023-02-27T14:47:16.412Z,97480.34
2023-02-27T14:50:07.600Z,97476.53
2023-02-27T14:52:57.322Z,97482.53
2023-02-27T14:55:55.304Z,97485.03
2023-02-27T14:59:03.457Z,97483.31
2023-02-27T15:01:54.484Z,97496.97
2023-02-27T15:04:46.283Z,97488.53
2023-02-27T15:07:36.372Z,97487.19
2023-02-27T15:10:30.877Z,97486.69
2023-02-27T15:13:26.926Z,97487.31
2023-02-27T15:16:37.625Z,97493.31
2023-02-27T15:19:28.864Z,97498.38
2023-02-27T15:22:37.946Z,97500.78
2023-02-27T15:25:30.319Z,97504.34
2023-02-27T15:28:23.801Z,97493.81
2023-02-27T15:31:19.315Z,97507.34
2023-02-27T15:34:13.103Z,97502.72
2023-02-27T15:37:02.967Z,97504.41
2023-02-27T15:39:54.406Z,97503.88
2023-02-27T15:42:44.895Z,97507.66
2023-02-27T15:45:35.617Z,97502.81
2023-02-27T15:48:25.027Z,97508.19
2023-02-27T15:51:14.755Z,97513.88
2023-02-27T15:54:06.890Z,97516.56
2023-02-27T15:56:57.671Z,97520.63
2023-02-27T15:59:47.194Z,97520.25
2023-02-27T16:02:41.741Z,97527.03
2023-02-27T16:05:36.565Z,97515.25
2023-02-27T16:08:26.618Z,97530.63
2023-02-27T16:11:20.323Z,97538.56
2023-02-27T16:14:42.152Z,97535.63
2023-02-27T16:17:33.431Z,97539.72
2023-02-27T16:20:55.017Z,97548.28
2023-02-27T16:23:44.784Z,97542.94
2023-02-27T16:26:37.036Z,97547.47
2023-02-27T16:29:33.677Z,97556.91
2023-02-27T16:32:27.258Z,97557.72
2023-02-27T16:35:19.023Z,97560.91
2023-02-27T16:38:08.433Z,97558.44
2023-02-27T16:40:57.954Z,97561.31
2023-02-27T16:43:48.491Z,97564.84
2023-02-27T16:46:39.319Z,97571.00
2023-02-27T16:49:33.589Z,97571.94
2023-02-27T16:52:23.681Z,97576.09
2023-02-27T16:55:14.511Z,97581.03
2023-02-27T16:58:07.445Z,97587.66
2023-02-27T17:01:01.777Z,97588.09
2023-02-27T17:03:51.425Z,97599.41
2023-02-27T17:06:43.152Z,97602.56
2023-02-27T17:09:32.668Z,97608.06
2023-02-27T17:12:25.908Z,97603.22
2023-02-27T17:15:16.391Z,97611.88
2023-02-27T17:18:20.931Z,97613.81
2023-02-27T17:21:50.502Z,97614.78
2023-02-27T17:25:05.798Z,97625.38
2023-02-27T17:28:05.916Z,97625.75
2023-02-27T17:30:55.929Z,97626.97
2023-02-27T17:33:46.336Z,97628.81
2023-02-27T17:36:36.319Z,97641.38
2023-02-27T17:39:25.870Z,97634.19
2023-02-27T17:42:31.836Z,97636.22
2023-02-27T17:45:21.733Z,97641.97
2023-02-27T17:48:17.142Z,97637.47
2023-02-27T17:51:07.024Z,97660.13
2023-02-27T17:54:11.023Z,97663.56
2023-02-27T17:57:20.603Z,97655.97
2023-02-27T18:00:16.624Z,97656.38
2023-02-27T18:03:07.108Z,97663.78
2023-02-27T18:05:56.657Z,97658.78
2023-02-27T18:08:46.158Z,97667.06
2023-02-27T18:11:37.680Z,97664.88
2023-02-27T18:14:26.874Z,97672.41
2023-02-27T18:17:17.638Z,97674.03
2023-02-27T18:20:08.080Z,97675.09
2023-02-27T18:22:57.710Z,97677.19
2023-02-27T18:25:55.398Z,97681.84
2023-02-27T18:28:45.053Z,97681.94
2023-02-27T18:31:36.680Z,97674.00
2023-02-27T18:34:31.005Z,97679.25
2023-02-27T18:37:21.465Z,97676.84
2023-02-27T18:40:15.343Z,97673.44
2023-02-27T18:43:05.253Z,97671.56
2023-02-27T18:45:55.015Z,97671.97
2023-02-27T18:48:46.021Z,97671.94
2023-02-27T18:51:36.951Z,97669.47
2023-02-27T18:54:29.815Z,97670.06
2023-02-27T18:57:19.487Z,97675.72
2023-02-27T19:00:10.462Z,97680.84
2023-02-27T19:03:00.482Z,97678.41
2023-02-27T19:05:52.154Z,97679.22
2023-02-27T19:08:43.220Z,97682.06
2023-02-27T19:11:35.903Z,97687.41
2023-02-27T19:14:25.769Z,97686.56
2023-02-27T19:17:15.648Z,97682.13
2023-02-27T19:20:07.158Z,97688.88
2023-02-27T19:23:00.831Z,97692.72
2023-02-27T19:25:59.624Z,97693.28
2023-02-27T19:28:52.144Z,97694.25
2023-02-27T19:31:42.435Z,97692.28
2023-02-27T19:34:32.142Z,97690.47
2023-02-27T19:37:22.136Z,97686.97
2023-02-27T19:40:12.910Z,97678.03
2023-02-27T19:43:03.950Z,97690.22
2023-02-27T19:45:53.318Z,97685.97
2023-02-27T19:48:44.497Z,97678.44
2023-02-27T19:51:34.606Z,97679.41
2023-02-27T19:54:24.562Z,97682.03
2023-02-27T19:57:15.122Z,97676.50
2023-02-27T20:00:07.257Z,97678.78
2023-02-27T20:03:02.042Z,97679.16
2023-02-27T20:05:52.057Z,97678.81
2023-02-27T20:08:42.124Z,97677.56
2023-02-27T20:11:32.203Z,97684.25
2023-02-27T20:14:21.733Z,97678.53
2023-02-27T20:17:12.871Z,97678.78
2023-02-27T20:20:02.953Z,97676.75
2023-02-27T20:22:53.280Z,97678.19
2023-02-27T20:25:49.293Z,97674.78
2023-02-27T20:28:39.511Z,97668.72
2023-02-27T20:31:32.103Z,97667.69
2023-02-27T20:34:26.642Z,97674.41
2023-02-27T20:37:16.829Z,97676.41
2023-02-27T20:40:08.623Z,97666.69
2023-02-27T20:43:01.621Z,97664.03
2023-02-27T20:45:51.704Z,97657.97
2023-02-27T20:48:42.100Z,97655.78
2023-02-27T20:51:36.417Z,97667.19
2023-02-27T20:54:26.764Z,97665.50
2023-02-27T20:57:16.974Z,97656.78
2023-02-27T21:00:12.083Z,97667.56
2023-02-27T21:03:01.866Z,97660.69
2023-02-27T21:05:54.467Z,97654.66
2023-02-27T21:08:46.858Z,97661.59
2023-02-27T21:11:36.844Z,97655.22
2023-02-27T21:14:27.243Z,97657.63
2023-02-27T21:17:17.817Z,97651.69
2023-02-27T21:20:08.801Z,97656.56
2023-02-27T21:22:58.706Z,97654.78
2023-02-27T21:25:49.949Z,97648.09
2023-02-27T21:28:47.792Z,97654.63
2023-02-27T21:31:38.357Z,97657.03
2023-02-27T21:34:28.927Z,97647.44
2023-02-27T21:37:20.386Z,97644.00
2023-02-27T21:40:11.245Z,97636.28
2023-02-27T21:43:05.429Z,97641.19
2023-02-27T21:45:56.201Z,97644.06
2023-02-27T21:48:46.107Z,97633.88
2023-02-27T21:51:40.834Z,97639.19
2023-02-27T21:54:32.253Z,97637.34
2023-02-27T21:57:37.858Z,97635.09
2023-02-27T22:00:31.272Z,97634.28
2023-02-27T22:03:21.956Z,97630.66
2023-02-27T22:06:14.502Z,97628.66
2023-02-27T22:09:17.109Z,97629.22
2023-02-27T22:12:07.894Z,97634.38
2023-02-27T22:14:57.776Z,97629.97
2023-02-27T22:17:50.897Z,97629.94
2023-02-27T22:20:47.710Z,97641.28
2023-02-27T22:23:39.304Z,97627.28
2023-02-27T22:26:31.235Z,97634.59
2023-02-27T22:29:20.956Z,97624.41
2023-02-27T22:32:18.504Z,97632.81
2023-02-27T22:35:10.320Z,97620.63
2023-02-27T22:38:00.276Z,97629.63
2023-02-27T22:40:50.494Z,97623.75
2023-02-27T22:43:41.103Z,97618.03
2023-02-27T22:46:31.840Z,97616.84
2023-02-27T22:49:23.593Z,97608.13
2023-02-27T22:52:15.117Z,97613.44
2023-02-27T22:55:06.017Z,97613.03
2023-02-27T22:57:57.044Z,97609.78
2023-02-27T23:00:47.355Z,97613.47
2023-02-27T23:03:37.372Z,97601.31
2023-02-27T23:06:29.177Z,97597.88
2023-02-27T23:09:22.619Z,97601.31
2023-02-27T23:12:12.289Z,97604.34
2023-02-27T23:15:04.843Z,97591.97
2023-02-27T23:17:58.698Z,97597.69
2023-02-27T23:20:49.529Z,97601.69
2023-02-27T23:23:39.335Z,97601.94
2023-02-27T23:26:30.309Z,97602.16
2023-02-27T23:29:19.915Z,97601.72
2023-02-27T23:32:09.697Z,97597.28
2023-02-27T23:34:59.587Z,97605.38
2023-02-27T23:37:50.802Z,97594.88
2023-02-27T23:40:40.496Z,97591.63
2023-02-27T23:43:52.468Z,97592.00
2023-02-27T23:46:42.565Z,97596.06
2023-02-27T23:49:35.668Z,97588.16
2023-02-27T23:52:25.512Z,97589.41
2023-02-27T23:55:15.071Z,97585.16
2023-02-27T23:58:06.911Z,97582.28
